sensor_id;sensor_type;location;lat;lon;timestamp;temperature;humidity
17827;DHT22;9038;48.208;16.308;2022-11-23T00:01:19;6.60;75.50
17827;DHT22;9038;48.208;16.308;2022-11-23T00:03:21;6.60;75.20
17827;DHT22;9038;48.208;16.308;2022-11-23T00:05:23;6.60;74.80
17827;DHT22;9038;48.208;16.308;2022-11-23T00:07:25;6.60;75.10
17827;DHT22;9038;48.208;16.308;2022-11-23T00:09:27;6.60;74.80
17827;DHT22;9038;48.208;16.308;2022-11-23T00:11:29;6.50;74.70
17827;DHT22;9038;48.208;16.308;2022-11-23T00:13:31;6.50;74.80
17827;DHT22;9038;48.208;16.308;2022-11-23T00:15:36;6.50;75.60
17827;DHT22;9038;48.208;16.308;2022-11-23T00:17:40;6.60;75.60
17827;DHT22;9038;48.208;16.308;2022-11-23T00:19:42;6.60;75.60
17827;DHT22;9038;48.208;16.308;2022-11-23T00:21:44;6.60;74.60
17827;DHT22;9038;48.208;16.308;2022-11-23T00:23:47;6.60;74.90
17827;DHT22;9038;48.208;16.308;2022-11-23T00:25:49;6.50;73.90
17827;DHT22;9038;48.208;16.308;2022-11-23T00:27:50;6.50;74.50
17827;DHT22;9038;48.208;16.308;2022-11-23T00:29:52;6.50;74.00
17827;DHT22;9038;48.208;16.308;2022-11-23T00:31:56;6.50;74.40
17827;DHT22;9038;48.208;16.308;2022-11-23T00:33:58;6.50;74.40
17827;DHT22;9038;48.208;16.308;2022-11-23T00:36:01;6.50;74.70
17827;DHT22;9038;48.208;16.308;2022-11-23T00:38:03;6.50;74.40
17827;DHT22;9038;48.208;16.308;2022-11-23T00:40:06;6.50;74.40
17827;DHT22;9038;48.208;16.308;2022-11-23T00:42:08;6.50;74.40
17827;DHT22;9038;48.208;16.308;2022-11-23T00:44:10;6.50;74.40
17827;DHT22;9038;48.208;16.308;2022-11-23T00:46:13;6.50;74.40
17827;DHT22;9038;48.208;16.308;2022-11-23T00:48:17;6.60;74.50
17827;DHT22;9038;48.208;16.308;2022-11-23T00:50:19;6.60;75.20
17827;DHT22;9038;48.208;16.308;2022-11-23T00:52:21;6.60;74.20
17827;DHT22;9038;48.208;16.308;2022-11-23T00:54:23;6.50;74.20
17827;DHT22;9038;48.208;16.308;2022-11-23T00:56:25;6.50;73.50
17827;DHT22;9038;48.208;16.308;2022-11-23T00:58:27;6.50;74.00
17827;DHT22;9038;48.208;16.308;2022-11-23T01:00:29;6.50;74.40
17827;DHT22;9038;48.208;16.308;2022-11-23T01:02:33;6.50;74.40
17827;DHT22;9038;48.208;16.308;2022-11-23T01:04:37;6.50;74.70
17827;DHT22;9038;48.208;16.308;2022-11-23T01:06:39;6.60;74.60
17827;DHT22;9038;48.208;16.308;2022-11-23T01:08:41;6.60;74.90
17827;DHT22;9038;48.208;16.308;2022-11-23T01:10:43;6.60;74.50
17827;DHT22;9038;48.208;16.308;2022-11-23T01:12:45;6.60;74.80
17827;DHT22;9038;48.208;16.308;2022-11-23T01:14:47;6.60;74.80
17827;DHT22;9038;48.208;16.308;2022-11-23T01:16:49;6.60;74.80
17827;DHT22;9038;48.208;16.308;2022-11-23T01:18:52;6.60;75.00
17827;DHT22;9038;48.208;16.308;2022-11-23T01:20:55;6.60;74.80
17827;DHT22;9038;48.208;16.308;2022-11-23T01:22:57;6.50;74.70
17827;DHT22;9038;48.208;16.308;2022-11-23T01:24:59;6.50;74.60
17827;DHT22;9038;48.208;16.308;2022-11-23T01:27:01;6.50;75.00
17827;DHT22;9038;48.208;16.308;2022-11-23T01:29:03;6.50;74.70
17827;DHT22;9038;48.208;16.308;2022-11-23T01:31:06;6.50;75.20
17827;DHT22;9038;48.208;16.308;2022-11-23T01:33:09;6.50;74.70
17827;DHT22;9038;48.208;16.308;2022-11-23T01:35:10;6.50;75.00
17827;DHT22;9038;48.208;16.308;2022-11-23T01:37:14;6.50;74.70
17827;DHT22;9038;48.208;16.308;2022-11-23T01:39:16;6.60;75.20
17827;DHT22;9038;48.208;16.308;2022-11-23T01:41:20;6.60;74.70
17827;DHT22;9038;48.208;16.308;2022-11-23T01:43:22;6.50;74.40
17827;DHT22;9038;48.208;16.308;2022-11-23T01:45:35;6.50;74.40
17827;DHT22;9038;48.208;16.308;2022-11-23T01:47:38;6.50;74.40
17827;DHT22;9038;48.208;16.308;2022-11-23T01:49:41;6.60;74.50
17827;DHT22;9038;48.208;16.308;2022-11-23T01:51:46;6.60;74.40
17827;DHT22;9038;48.208;16.308;2022-11-23T01:53:53;6.50;74.20
17827;DHT22;9038;48.208;16.308;2022-11-23T01:55:58;6.50;74.30
17827;DHT22;9038;48.208;16.308;2022-11-23T01:58:00;6.50;74.40
17827;DHT22;9038;48.208;16.308;2022-11-23T02:00:03;6.50;74.70
17827;DHT22;9038;48.208;16.308;2022-11-23T02:02:05;6.60;74.40
17827;DHT22;9038;48.208;16.308;2022-11-23T02:04:12;6.60;74.50
17827;DHT22;9038;48.208;16.308;2022-11-23T02:06:17;6.60;74.50
17827;DHT22;9038;48.208;16.308;2022-11-23T02:08:20;6.60;74.50
17827;DHT22;9038;48.208;16.308;2022-11-23T02:10:24;6.60;74.50
17827;DHT22;9038;48.208;16.308;2022-11-23T02:12:26;6.60;74.50
17827;DHT22;9038;48.208;16.308;2022-11-23T02:14:28;6.60;74.50
17827;DHT22;9038;48.208;16.308;2022-11-23T02:16:30;6.60;74.50
17827;DHT22;9038;48.208;16.308;2022-11-23T02:18:33;6.60;74.40
17827;DHT22;9038;48.208;16.308;2022-11-23T02:20:36;6.60;74.20
17827;DHT22;9038;48.208;16.308;2022-11-23T02:22:44;6.70;74.60
17827;DHT22;9038;48.208;16.308;2022-11-23T02:24:50;6.70;75.30
17827;DHT22;9038;48.208;16.308;2022-11-23T02:26:55;6.70;74.40
17827;DHT22;9038;48.208;16.308;2022-11-23T02:29:00;6.80;74.10
17827;DHT22;9038;48.208;16.308;2022-11-23T02:31:03;6.80;74.00
17827;DHT22;9038;48.208;16.308;2022-11-23T02:33:05;6.80;73.70
17827;DHT22;9038;48.208;16.308;2022-11-23T02:35:09;6.70;73.60
17827;DHT22;9038;48.208;16.308;2022-11-23T02:37:11;6.80;73.90
17827;DHT22;9038;48.208;16.308;2022-11-23T02:39:16;6.70;74.00
17827;DHT22;9038;48.208;16.308;2022-11-23T02:41:19;6.70;73.90
17827;DHT22;9038;48.208;16.308;2022-11-23T02:43:22;6.70;74.20
17827;DHT22;9038;48.208;16.308;2022-11-23T02:45:33;6.70;73.90
17827;DHT22;9038;48.208;16.308;2022-11-23T02:47:37;6.70;73.80
17827;DHT22;9038;48.208;16.308;2022-11-23T02:49:40;6.70;74.50
17827;DHT22;9038;48.208;16.308;2022-11-23T02:51:42;6.70;74.00
17827;DHT22;9038;48.208;16.308;2022-11-23T02:53:48;6.80;74.10
17827;DHT22;9038;48.208;16.308;2022-11-23T02:55:50;6.80;74.10
17827;DHT22;9038;48.208;16.308;2022-11-23T02:57:52;6.80;73.70
17827;DHT22;9038;48.208;16.308;2022-11-23T02:59:55;6.80;73.90
17827;DHT22;9038;48.208;16.308;2022-11-23T03:01:57;6.70;73.60
17827;DHT22;9038;48.208;16.308;2022-11-23T03:03:59;6.70;74.20
17827;DHT22;9038;48.208;16.308;2022-11-23T03:06:01;6.70;74.60
17827;DHT22;9038;48.208;16.308;2022-11-23T03:08:03;6.70;74.10
17827;DHT22;9038;48.208;16.308;2022-11-23T03:10:06;6.70;74.60
17827;DHT22;9038;48.208;16.308;2022-11-23T03:12:09;6.70;74.10
17827;DHT22;9038;48.208;16.308;2022-11-23T03:14:10;6.70;74.20
17827;DHT22;9038;48.208;16.308;2022-11-23T03:16:13;6.70;74.40
17827;DHT22;9038;48.208;16.308;2022-11-23T03:18:15;6.70;74.60
17827;DHT22;9038;48.208;16.308;2022-11-23T03:20:18;6.70;74.60
17827;DHT22;9038;48.208;16.308;2022-11-23T03:22:19;6.60;74.80
17827;DHT22;9038;48.208;16.308;2022-11-23T03:24:21;6.60;74.80
17827;DHT22;9038;48.208;16.308;2022-11-23T03:26:23;6.60;74.90
17827;DHT22;9038;48.208;16.308;2022-11-23T03:28:25;6.60;75.40
17827;DHT22;9038;48.208;16.308;2022-11-23T03:30:28;6.60;75.50
17827;DHT22;9038;48.208;16.308;2022-11-23T03:32:32;6.60;75.20
17827;DHT22;9038;48.208;16.308;2022-11-23T03:34:34;6.50;75.30
17827;DHT22;9038;48.208;16.308;2022-11-23T03:36:36;6.50;75.40
17827;DHT22;9038;48.208;16.308;2022-11-23T03:38:38;6.50;75.60
17827;DHT22;9038;48.208;16.308;2022-11-23T03:40:40;6.50;75.10
17827;DHT22;9038;48.208;16.308;2022-11-23T03:42:42;6.50;75.50
17827;DHT22;9038;48.208;16.308;2022-11-23T03:44:43;6.40;75.30
17827;DHT22;9038;48.208;16.308;2022-11-23T03:46:45;6.30;75.40
17827;DHT22;9038;48.208;16.308;2022-11-23T03:48:49;6.30;75.20
17827;DHT22;9038;48.208;16.308;2022-11-23T03:50:50;6.40;75.50
17827;DHT22;9038;48.208;16.308;2022-11-23T03:52:52;6.40;75.40
17827;DHT22;9038;48.208;16.308;2022-11-23T03:54:54;6.40;74.80
17827;DHT22;9038;48.208;16.308;2022-11-23T03:56:56;6.40;74.80
17827;DHT22;9038;48.208;16.308;2022-11-23T03:58:58;6.40;74.30
17827;DHT22;9038;48.208;16.308;2022-11-23T04:01:00;6.40;75.10
17827;DHT22;9038;48.208;16.308;2022-11-23T04:03:02;6.40;74.30
17827;DHT22;9038;48.208;16.308;2022-11-23T04:05:06;6.40;74.30
17827;DHT22;9038;48.208;16.308;2022-11-23T04:07:08;6.40;74.30
17827;DHT22;9038;48.208;16.308;2022-11-23T04:09:11;6.30;74.30
17827;DHT22;9038;48.208;16.308;2022-11-23T04:11:13;6.30;74.50
17827;DHT22;9038;48.208;16.308;2022-11-23T04:13:15;6.30;74.70
17827;DHT22;9038;48.208;16.308;2022-11-23T04:15:17;6.30;74.80
17827;DHT22;9038;48.208;16.308;2022-11-23T04:17:19;6.30;75.20
17827;DHT22;9038;48.208;16.308;2022-11-23T04:19:21;6.30;75.40
17827;DHT22;9038;48.208;16.308;2022-11-23T04:21:24;6.30;75.70
17827;DHT22;9038;48.208;16.308;2022-11-23T04:23:26;6.30;75.70
17827;DHT22;9038;48.208;16.308;2022-11-23T04:25:28;6.20;75.70
17827;DHT22;9038;48.208;16.308;2022-11-23T04:27:30;6.20;76.10
17827;DHT22;9038;48.208;16.308;2022-11-23T04:29:32;6.20;75.80
17827;DHT22;9038;48.208;16.308;2022-11-23T04:31:34;6.20;76.10
17827;DHT22;9038;48.208;16.308;2022-11-23T04:33:35;6.20;76.10
17827;DHT22;9038;48.208;16.308;2022-11-23T04:35:37;6.30;76.20
17827;DHT22;9038;48.208;16.308;2022-11-23T04:37:41;6.30;76.20
17827;DHT22;9038;48.208;16.308;2022-11-23T04:39:42;6.30;76.20
17827;DHT22;9038;48.208;16.308;2022-11-23T04:41:44;6.30;76.20
17827;DHT22;9038;48.208;16.308;2022-11-23T04:43:46;6.40;75.80
17827;DHT22;9038;48.208;16.308;2022-11-23T04:45:48;6.30;76.10
17827;DHT22;9038;48.208;16.308;2022-11-23T04:47:50;6.40;76.00
17827;DHT22;9038;48.208;16.308;2022-11-23T04:49:52;6.30;76.20
17827;DHT22;9038;48.208;16.308;2022-11-23T04:51:54;6.40;76.30
17827;DHT22;9038;48.208;16.308;2022-11-23T04:53:57;6.40;76.30
17827;DHT22;9038;48.208;16.308;2022-11-23T04:55:59;6.40;76.20
17827;DHT22;9038;48.208;16.308;2022-11-23T04:58:01;6.40;76.30
17827;DHT22;9038;48.208;16.308;2022-11-23T05:00:04;6.40;76.30
17827;DHT22;9038;48.208;16.308;2022-11-23T05:02:06;6.40;76.30
17827;DHT22;9038;48.208;16.308;2022-11-23T05:04:07;6.30;76.20
17827;DHT22;9038;48.208;16.308;2022-11-23T05:06:10;6.30;76.20
17827;DHT22;9038;48.208;16.308;2022-11-23T05:08:11;6.30;76.60
17827;DHT22;9038;48.208;16.308;2022-11-23T05:10:15;6.30;77.10
17827;DHT22;9038;48.208;16.308;2022-11-23T05:12:17;6.30;76.80
17827;DHT22;9038;48.208;16.308;2022-11-23T05:14:19;6.40;76.60
17827;DHT22;9038;48.208;16.308;2022-11-23T05:16:20;6.40;76.70
17827;DHT22;9038;48.208;16.308;2022-11-23T05:18:22;6.40;76.80
17827;DHT22;9038;48.208;16.308;2022-11-23T05:20:24;6.30;75.70
17827;DHT22;9038;48.208;16.308;2022-11-23T05:22:26;6.40;76.50
17827;DHT22;9038;48.208;16.308;2022-11-23T05:24:28;6.40;76.60
17827;DHT22;9038;48.208;16.308;2022-11-23T05:26:31;6.40;77.20
17827;DHT22;9038;48.208;16.308;2022-11-23T05:28:33;6.40;76.90
17827;DHT22;9038;48.208;16.308;2022-11-23T05:30:36;6.40;76.90
17827;DHT22;9038;48.208;16.308;2022-11-23T05:32:38;6.40;77.10
17827;DHT22;9038;48.208;16.308;2022-11-23T05:34:40;6.40;76.50
17827;DHT22;9038;48.208;16.308;2022-11-23T05:36:42;6.40;76.80
17827;DHT22;9038;48.208;16.308;2022-11-23T05:38:44;6.30;76.40
17827;DHT22;9038;48.208;16.308;2022-11-23T05:40:46;6.30;77.00
17827;DHT22;9038;48.208;16.308;2022-11-23T05:42:53;6.30;76.90
17827;DHT22;9038;48.208;16.308;2022-11-23T05:44:55;6.30;76.70
17827;DHT22;9038;48.208;16.308;2022-11-23T05:46:57;6.20;76.80
17827;DHT22;9038;48.208;16.308;2022-11-23T05:48:59;6.20;76.70
17827;DHT22;9038;48.208;16.308;2022-11-23T05:51:01;6.20;76.00
17827;DHT22;9038;48.208;16.308;2022-11-23T05:53:02;6.10;76.10
17827;DHT22;9038;48.208;16.308;2022-11-23T05:55:05;6.10;76.50
17827;DHT22;9038;48.208;16.308;2022-11-23T05:57:07;6.10;76.10
17827;DHT22;9038;48.208;16.308;2022-11-23T05:59:11;6.10;76.00
17827;DHT22;9038;48.208;16.308;2022-11-23T06:01:14;6.10;76.10
17827;DHT22;9038;48.208;16.308;2022-11-23T06:03:15;6.10;76.30
17827;DHT22;9038;48.208;16.308;2022-11-23T06:05:17;6.10;77.10
17827;DHT22;9038;48.208;16.308;2022-11-23T06:07:19;6.20;77.90
17827;DHT22;9038;48.208;16.308;2022-11-23T06:09:21;6.20;76.70
17827;DHT22;9038;48.208;16.308;2022-11-23T06:11:23;6.20;76.90
17827;DHT22;9038;48.208;16.308;2022-11-23T06:13:25;6.20;76.60
17827;DHT22;9038;48.208;16.308;2022-11-23T06:15:28;6.20;76.70
17827;DHT22;9038;48.208;16.308;2022-11-23T06:17:30;6.10;76.60
17827;DHT22;9038;48.208;16.308;2022-11-23T06:19:32;6.10;76.10
17827;DHT22;9038;48.208;16.308;2022-11-23T06:21:34;6.00;76.10
17827;DHT22;9038;48.208;16.308;2022-11-23T06:23:36;6.00;78.70
17827;DHT22;9038;48.208;16.308;2022-11-23T06:25:38;6.00;80.40
17827;DHT22;9038;48.208;16.308;2022-11-23T06:27:40;6.00;78.30
17827;DHT22;9038;48.208;16.308;2022-11-23T06:29:42;6.00;76.90
17827;DHT22;9038;48.208;16.308;2022-11-23T06:31:45;6.00;77.40
17827;DHT22;9038;48.208;16.308;2022-11-23T06:33:47;5.80;78.10
17827;DHT22;9038;48.208;16.308;2022-11-23T06:35:53;5.80;78.10
17827;DHT22;9038;48.208;16.308;2022-11-23T06:37:55;5.70;78.00
17827;DHT22;9038;48.208;16.308;2022-11-23T06:39:57;5.70;78.00
17827;DHT22;9038;48.208;16.308;2022-11-23T06:41:59;5.70;77.10
17827;DHT22;9038;48.208;16.308;2022-11-23T06:44:01;5.70;77.50
17827;DHT22;9038;48.208;16.308;2022-11-23T06:46:04;5.70;77.50
17827;DHT22;9038;48.208;16.308;2022-11-23T06:48:07;5.90;77.70
17827;DHT22;9038;48.208;16.308;2022-11-23T06:50:09;5.90;77.30
17827;DHT22;9038;48.208;16.308;2022-11-23T06:52:11;6.00;77.20
17827;DHT22;9038;48.208;16.308;2022-11-23T06:54:13;6.00;76.90
17827;DHT22;9038;48.208;16.308;2022-11-23T06:56:15;6.10;76.90
17827;DHT22;9038;48.208;16.308;2022-11-23T06:58:17;6.10;76.40
17827;DHT22;9038;48.208;16.308;2022-11-23T07:00:19;6.20;76.80
17827;DHT22;9038;48.208;16.308;2022-11-23T07:02:21;6.30;76.80
17827;DHT22;9038;48.208;16.308;2022-11-23T07:04:25;6.30;77.00
17827;DHT22;9038;48.208;16.308;2022-11-23T07:06:26;6.40;76.30
17827;DHT22;9038;48.208;16.308;2022-11-23T07:08:28;6.40;76.30
17827;DHT22;9038;48.208;16.308;2022-11-23T07:10:30;6.50;76.20
17827;DHT22;9038;48.208;16.308;2022-11-23T07:12:32;6.50;76.40
17827;DHT22;9038;48.208;16.308;2022-11-23T07:14:34;6.50;76.00
17827;DHT22;9038;48.208;16.308;2022-11-23T07:16:36;6.50;76.00
17827;DHT22;9038;48.208;16.308;2022-11-23T07:18:38;6.60;76.50
17827;DHT22;9038;48.208;16.308;2022-11-23T07:20:41;6.60;76.20
17827;DHT22;9038;48.208;16.308;2022-11-23T07:22:43;6.60;75.80
17827;DHT22;9038;48.208;16.308;2022-11-23T07:24:45;6.60;75.30
17827;DHT22;9038;48.208;16.308;2022-11-23T07:26:47;6.60;75.00
17827;DHT22;9038;48.208;16.308;2022-11-23T07:28:49;6.60;75.60
17827;DHT22;9038;48.208;16.308;2022-11-23T07:30:51;6.60;75.00
17827;DHT22;9038;48.208;16.308;2022-11-23T07:32:53;6.50;75.40
17827;DHT22;9038;48.208;16.308;2022-11-23T07:34:59;6.60;75.60
17827;DHT22;9038;48.208;16.308;2022-11-23T07:37:02;6.50;74.50
17827;DHT22;9038;48.208;16.308;2022-11-23T07:39:04;6.50;75.30
17827;DHT22;9038;48.208;16.308;2022-11-23T07:41:07;6.50;74.50
17827;DHT22;9038;48.208;16.308;2022-11-23T07:43:09;6.50;74.90
17827;DHT22;9038;48.208;16.308;2022-11-23T07:45:11;6.50;74.90
17827;DHT22;9038;48.208;16.308;2022-11-23T07:47:13;6.50;75.10
17827;DHT22;9038;48.208;16.308;2022-11-23T07:49:15;6.50;74.90
17827;DHT22;9038;48.208;16.308;2022-11-23T07:51:17;6.60;75.10
17827;DHT22;9038;48.208;16.308;2022-11-23T07:53:21;6.70;74.90
17827;DHT22;9038;48.208;16.308;2022-11-23T07:55:24;6.70;74.50
17827;DHT22;9038;48.208;16.308;2022-11-23T07:57:26;6.70;74.30
17827;DHT22;9038;48.208;16.308;2022-11-23T07:59:28;6.80;74.70
17827;DHT22;9038;48.208;16.308;2022-11-23T08:01:30;6.80;74.30
17827;DHT22;9038;48.208;16.308;2022-11-23T08:03:32;6.80;73.60
17827;DHT22;9038;48.208;16.308;2022-11-23T08:05:34;6.90;73.80
17827;DHT22;9038;48.208;16.308;2022-11-23T08:07:36;6.90;73.90
17827;DHT22;9038;48.208;16.308;2022-11-23T08:09:39;6.90;74.00
17827;DHT22;9038;48.208;16.308;2022-11-23T08:11:41;6.90;73.80
17827;DHT22;9038;48.208;16.308;2022-11-23T08:13:43;6.90;73.30
17827;DHT22;9038;48.208;16.308;2022-11-23T08:15:45;6.90;73.80
17827;DHT22;9038;48.208;16.308;2022-11-23T08:17:47;7.00;73.40
17827;DHT22;9038;48.208;16.308;2022-11-23T08:19:49;7.00;73.70
17827;DHT22;9038;48.208;16.308;2022-11-23T08:21:51;7.00;73.10
17827;DHT22;9038;48.208;16.308;2022-11-23T08:23:53;7.10;73.00
17827;DHT22;9038;48.208;16.308;2022-11-23T08:25:56;7.10;73.00
17827;DHT22;9038;48.208;16.308;2022-11-23T08:28:00;7.20;73.30
17827;DHT22;9038;48.208;16.308;2022-11-23T08:30:03;7.30;72.80
17827;DHT22;9038;48.208;16.308;2022-11-23T08:32:05;7.30;72.20
17827;DHT22;9038;48.208;16.308;2022-11-23T08:34:07;7.40;72.30
17827;DHT22;9038;48.208;16.308;2022-11-23T08:36:09;7.40;72.10
17827;DHT22;9038;48.208;16.308;2022-11-23T08:38:11;7.40;71.30
17827;DHT22;9038;48.208;16.308;2022-11-23T08:40:14;7.40;71.90
17827;DHT22;9038;48.208;16.308;2022-11-23T08:42:17;7.40;71.90
17827;DHT22;9038;48.208;16.308;2022-11-23T08:44:19;7.40;71.30
17827;DHT22;9038;48.208;16.308;2022-11-23T08:46:21;7.40;71.30
17827;DHT22;9038;48.208;16.308;2022-11-23T08:48:23;7.40;71.80
17827;DHT22;9038;48.208;16.308;2022-11-23T08:50:25;7.40;71.40
17827;DHT22;9038;48.208;16.308;2022-11-23T08:52:28;7.50;71.40
17827;DHT22;9038;48.208;16.308;2022-11-23T08:54:30;7.40;71.30
17827;DHT22;9038;48.208;16.308;2022-11-23T08:56:32;7.40;71.30
17827;DHT22;9038;48.208;16.308;2022-11-23T08:58:35;7.50;71.40
17827;DHT22;9038;48.208;16.308;2022-11-23T09:00:37;7.60;70.80
17827;DHT22;9038;48.208;16.308;2022-11-23T09:02:39;7.50;70.60
17827;DHT22;9038;48.208;16.308;2022-11-23T09:04:41;7.50;70.50
17827;DHT22;9038;48.208;16.308;2022-11-23T09:06:43;7.50;71.20
17827;DHT22;9038;48.208;16.308;2022-11-23T09:08:45;7.40;70.90
17827;DHT22;9038;48.208;16.308;2022-11-23T09:10:47;7.40;71.40
17827;DHT22;9038;48.208;16.308;2022-11-23T09:12:49;7.40;71.20
17827;DHT22;9038;48.208;16.308;2022-11-23T09:14:53;7.40;71.30
17827;DHT22;9038;48.208;16.308;2022-11-23T09:16:55;7.30;71.20
17827;DHT22;9038;48.208;16.308;2022-11-23T09:18:57;7.40;72.00
17827;DHT22;9038;48.208;16.308;2022-11-23T09:21:01;7.40;71.80
17827;DHT22;9038;48.208;16.308;2022-11-23T09:23:03;7.50;71.90
17827;DHT22;9038;48.208;16.308;2022-11-23T09:25:06;7.50;71.40
17827;DHT22;9038;48.208;16.308;2022-11-23T09:27:08;7.40;71.30
17827;DHT22;9038;48.208;16.308;2022-11-23T09:29:10;7.30;71.20
17827;DHT22;9038;48.208;16.308;2022-11-23T09:31:13;7.30;71.20
17827;DHT22;9038;48.208;16.308;2022-11-23T09:33:15;7.30;71.20
17827;DHT22;9038;48.208;16.308;2022-11-23T09:35:17;7.30;71.70
17827;DHT22;9038;48.208;16.308;2022-11-23T09:37:19;7.40;71.40
17827;DHT22;9038;48.208;16.308;2022-11-23T09:39:21;7.50;71.40
17827;DHT22;9038;48.208;16.308;2022-11-23T09:41:50;7.50;71.20
17827;DHT22;9038;48.208;16.308;2022-11-23T09:44:00;7.50;70.20
17827;DHT22;9038;48.208;16.308;2022-11-23T09:46:11;7.50;70.30
17827;DHT22;9038;48.208;16.308;2022-11-23T09:48:28;7.60;70.70
17827;DHT22;9038;48.208;16.308;2022-11-23T09:50:38;7.60;70.70
17827;DHT22;9038;48.208;16.308;2022-11-23T09:52:46;7.70;70.70
17827;DHT22;9038;48.208;16.308;2022-11-23T09:54:53;7.70;70.30
17827;DHT22;9038;48.208;16.308;2022-11-23T09:56:57;7.80;70.20
17827;DHT22;9038;48.208;16.308;2022-11-23T09:59:02;7.90;70.50
17827;DHT22;9038;48.208;16.308;2022-11-23T10:01:11;7.90;70.00
17827;DHT22;9038;48.208;16.308;2022-11-23T10:03:16;8.00;70.20
17827;DHT22;9038;48.208;16.308;2022-11-23T10:05:22;8.10;70.00
17827;DHT22;9038;48.208;16.308;2022-11-23T10:07:36;8.10;69.30
17827;DHT22;9038;48.208;16.308;2022-11-23T10:09:48;8.20;69.20
17827;DHT22;9038;48.208;16.308;2022-11-23T10:12:10;8.30;69.20
17827;DHT22;9038;48.208;16.308;2022-11-23T10:14:27;8.30;69.10
17827;DHT22;9038;48.208;16.308;2022-11-23T10:18:46;8.50;67.70
17827;DHT22;9038;48.208;16.308;2022-11-23T10:20:55;8.50;68.40
17827;DHT22;9038;48.208;16.308;2022-11-23T10:23:00;8.50;68.40
17827;DHT22;9038;48.208;16.308;2022-11-23T10:25:12;8.70;68.60
17827;DHT22;9038;48.208;16.308;2022-11-23T10:27:17;8.80;68.20
17827;DHT22;9038;48.208;16.308;2022-11-23T10:29:24;8.90;67.20
17827;DHT22;9038;48.208;16.308;2022-11-23T10:31:28;8.90;67.00
17827;DHT22;9038;48.208;16.308;2022-11-23T10:33:36;8.80;66.70
17827;DHT22;9038;48.208;16.308;2022-11-23T10:35:40;8.80;67.00
17827;DHT22;9038;48.208;16.308;2022-11-23T10:37:43;8.90;67.60
17827;DHT22;9038;48.208;16.308;2022-11-23T10:39:45;8.90;67.10
17827;DHT22;9038;48.208;16.308;2022-11-23T10:41:48;9.00;67.50
17827;DHT22;9038;48.208;16.308;2022-11-23T10:43:56;9.10;67.50
17827;DHT22;9038;48.208;16.308;2022-11-23T10:48:33;9.20;65.60
17827;DHT22;9038;48.208;16.308;2022-11-23T10:50:37;9.20;66.20
17827;DHT22;9038;48.208;16.308;2022-11-23T10:52:51;9.10;66.10
17827;DHT22;9038;48.208;16.308;2022-11-23T10:54:54;9.10;66.50
17827;DHT22;9038;48.208;16.308;2022-11-23T10:56:58;9.10;66.70
17827;DHT22;9038;48.208;16.308;2022-11-23T10:59:00;9.00;67.20
17827;DHT22;9038;48.208;16.308;2022-11-23T11:01:04;9.00;67.10
17827;DHT22;9038;48.208;16.308;2022-11-23T11:03:22;9.00;67.20
17827;DHT22;9038;48.208;16.308;2022-11-23T11:05:30;8.80;67.70
17827;DHT22;9038;48.208;16.308;2022-11-23T11:07:36;8.80;68.30
17827;DHT22;9038;48.208;16.308;2022-11-23T11:09:39;8.80;68.10
17827;DHT22;9038;48.208;16.308;2022-11-23T11:11:45;8.70;67.70
17827;DHT22;9038;48.208;16.308;2022-11-23T11:13:48;8.70;67.90
17827;DHT22;9038;48.208;16.308;2022-11-23T11:15:52;8.70;68.60
17827;DHT22;9038;48.208;16.308;2022-11-23T11:17:55;8.70;68.60
17827;DHT22;9038;48.208;16.308;2022-11-23T11:19:58;8.70;69.10
17827;DHT22;9038;48.208;16.308;2022-11-23T11:22:01;8.70;68.60
17827;DHT22;9038;48.208;16.308;2022-11-23T11:24:12;8.70;68.60
17827;DHT22;9038;48.208;16.308;2022-11-23T11:26:19;8.60;68.40
17827;DHT22;9038;48.208;16.308;2022-11-23T11:28:24;8.50;68.30
17827;DHT22;9038;48.208;16.308;2022-11-23T11:30:44;8.60;68.80
17827;DHT22;9038;48.208;16.308;2022-11-23T11:32:53;8.60;68.50
17827;DHT22;9038;48.208;16.308;2022-11-23T11:35:02;8.60;68.50
17827;DHT22;9038;48.208;16.308;2022-11-23T11:37:12;8.50;68.40
17827;DHT22;9038;48.208;16.308;2022-11-23T11:39:21;8.40;68.30
17827;DHT22;9038;48.208;16.308;2022-11-23T11:41:26;8.30;68.90
17827;DHT22;9038;48.208;16.308;2022-11-23T11:43:30;8.30;69.10
17827;DHT22;9038;48.208;16.308;2022-11-23T11:45:37;8.30;69.50
17827;DHT22;9038;48.208;16.308;2022-11-23T11:47:44;8.20;69.20
17827;DHT22;9038;48.208;16.308;2022-11-23T11:49:47;8.20;69.10
17827;DHT22;9038;48.208;16.308;2022-11-23T11:51:53;8.20;69.70
17827;DHT22;9038;48.208;16.308;2022-11-23T11:54:02;8.20;69.40
17827;DHT22;9038;48.208;16.308;2022-11-23T11:56:14;8.10;69.60
17827;DHT22;9038;48.208;16.308;2022-11-23T11:58:21;8.10;69.50
17827;DHT22;9038;48.208;16.308;2022-11-23T12:00:25;8.10;69.90
17827;DHT22;9038;48.208;16.308;2022-11-23T12:02:32;8.10;69.80
17827;DHT22;9038;48.208;16.308;2022-11-23T12:04:38;8.10;69.80
17827;DHT22;9038;48.208;16.308;2022-11-23T12:06:45;8.10;69.60
17827;DHT22;9038;48.208;16.308;2022-11-23T12:08:54;8.10;69.90
17827;DHT22;9038;48.208;16.308;2022-11-23T12:10:58;8.10;69.40
17827;DHT22;9038;48.208;16.308;2022-11-23T12:13:01;8.10;69.30
17827;DHT22;9038;48.208;16.308;2022-11-23T12:15:08;8.10;69.80
17827;DHT22;9038;48.208;16.308;2022-11-23T12:17:35;8.10;69.60
17827;DHT22;9038;48.208;16.308;2022-11-23T12:19:45;8.10;69.90
17827;DHT22;9038;48.208;16.308;2022-11-23T12:22:11;8.10;70.00
17827;DHT22;9038;48.208;16.308;2022-11-23T12:24:21;8.10;70.10
17827;DHT22;9038;48.208;16.308;2022-11-23T12:26:34;8.10;69.80
17827;DHT22;9038;48.208;16.308;2022-11-23T12:28:50;8.00;69.50
17827;DHT22;9038;48.208;16.308;2022-11-23T12:31:06;8.00;69.60
17827;DHT22;9038;48.208;16.308;2022-11-23T12:33:37;7.90;70.10
17827;DHT22;9038;48.208;16.308;2022-11-23T12:35:57;7.80;70.00
17827;DHT22;9038;48.208;16.308;2022-11-23T12:38:11;7.80;70.50
17827;DHT22;9038;48.208;16.308;2022-11-23T12:40:38;7.80;70.30
17827;DHT22;9038;48.208;16.308;2022-11-23T12:42:45;7.80;70.30
17827;DHT22;9038;48.208;16.308;2022-11-23T12:47:26;7.90;70.30
17827;DHT22;9038;48.208;16.308;2022-11-23T12:49:37;7.80;69.90
17827;DHT22;9038;48.208;16.308;2022-11-23T12:51:47;7.90;70.00
17827;DHT22;9038;48.208;16.308;2022-11-23T12:54:01;7.90;69.90
17827;DHT22;9038;48.208;16.308;2022-11-23T12:56:13;7.80;70.10
17827;DHT22;9038;48.208;16.308;2022-11-23T12:58:21;7.90;70.00
17827;DHT22;9038;48.208;16.308;2022-11-23T13:00:28;7.90;69.80
17827;DHT22;9038;48.208;16.308;2022-11-23T13:03:18;7.80;69.50
17827;DHT22;9038;48.208;16.308;2022-11-23T13:05:43;7.80;69.30
17827;DHT22;9038;48.208;16.308;2022-11-23T13:08:08;7.80;69.20
17827;DHT22;9038;48.208;16.308;2022-11-23T13:10:39;7.70;69.60
17827;DHT22;9038;48.208;16.308;2022-11-23T13:13:00;7.60;69.60
17827;DHT22;9038;48.208;16.308;2022-11-23T13:15:18;7.60;69.40
17827;DHT22;9038;48.208;16.308;2022-11-23T13:17:29;7.60;69.80
17827;DHT22;9038;48.208;16.308;2022-11-23T13:19:57;7.50;69.40
17827;DHT22;9038;48.208;16.308;2022-11-23T13:22:05;7.50;69.40
17827;DHT22;9038;48.208;16.308;2022-11-23T13:24:27;7.50;69.50
17827;DHT22;9038;48.208;16.308;2022-11-23T13:26:30;7.50;69.70